Time;durP1;ratioP1;P1;durP2;ratioP2;P2;SDS_P1;SDS_P2;PMS_P1;PMS_P2;Temp;Humidity;BMP_temperature;BMP_pressure;BME280_temperature;BME280_humidity;BME280_pressure;Samples;Min_cycle;Max_cycle;Signal;HPM_P1;HPM_P2
2023/11/15 00:01:12;;;;;;;22.20;4.38;;;10.30;99.90;;;;;;5022894;28;20042;-83
2023/11/15 00:03:38;;;;;;;14.35;4.03;;;10.30;99.90;;;;;;5021074;28;20400;-83
2023/11/15 00:06:05;;;;;;;14.30;3.63;;;10.30;99.90;;;;;;5022461;28;20018;-84
2023/11/15 00:08:30;;;;;;;20.25;3.83;;;10.30;99.90;;;;;;5022053;28;20403;-83
2023/11/15 00:10:56;;;;;;;15.40;3.70;;;10.30;99.90;;;;;;5020758;28;20026;-83
2023/11/15 00:13:22;;;;;;;16.05;4.28;;;10.30;99.90;;;;;;5022740;28;20018;-84
2023/11/15 00:15:48;;;;;;;15.93;4.00;;;10.30;99.90;;;;;;5020485;28;20032;-83
2023/11/15 00:18:13;;;;;;;12.88;3.20;;;10.30;99.90;;;;;;5022274;28;20085;-83
2023/11/15 00:20:39;;;;;;;15.45;3.40;;;10.30;99.90;;;;;;5020352;28;20057;-84
2023/11/15 00:23:05;;;;;;;9.70;3.33;;;10.40;99.90;;;;;;5021887;28;20049;-84
2023/11/15 00:25:31;;;;;;;13.45;3.53;;;10.40;99.90;;;;;;5021746;28;20029;-83
2023/11/15 00:27:57;;;;;;;10.02;3.10;;;10.40;99.90;;;;;;5020999;28;20026;-83
2023/11/15 00:30:23;;;;;;;19.17;3.77;;;10.40;99.90;;;;;;5056809;28;20033;-83
2023/11/15 00:32:50;;;;;;;15.27;3.53;;;10.40;99.90;;;;;;5054698;28;20060;-83
2023/11/15 00:35:16;;;;;;;15.73;3.27;;;10.40;99.90;;;;;;5055970;28;20093;-83
2023/11/15 00:37:42;;;;;;;16.02;3.17;;;10.40;99.90;;;;;;5021414;28;20068;-82
2023/11/15 00:40:13;;;;;;;12.95;3.13;;;10.40;99.90;;;;;;5055569;28;20025;-83
2023/11/15 00:42:39;;;;;;;15.90;2.97;;;10.40;99.90;;;;;;5021590;28;20041;-83
2023/11/15 00:45:08;;;;;;;13.00;3.10;;;10.40;99.90;;;;;;5020454;28;20025;-83
2023/11/15 00:47:34;;;;;;;16.40;4.22;;;10.40;99.90;;;;;;5021054;28;20036;-83
2023/11/15 00:50:01;;;;;;;18.70;3.87;;;10.40;99.90;;;;;;5019907;28;20068;-83
2023/11/15 00:52:26;;;;;;;15.00;4.37;;;10.40;99.90;;;;;;5021648;28;20026;-83
2023/11/15 00:54:52;;;;;;;25.13;4.32;;;10.40;99.90;;;;;;5020068;28;20117;-83
2023/11/15 00:57:18;;;;;;;15.10;4.43;;;10.40;99.90;;;;;;5021880;28;20018;-83
2023/11/15 00:59:53;;;;;;;19.90;5.40;;;10.40;99.90;;;;;;5020925;28;20017;-82
2023/11/15 01:02:22;;;;;;;17.93;5.37;;;10.50;99.90;;;;;;5020034;28;20029;-83
2023/11/15 01:04:50;;;;;;;14.90;5.65;;;10.50;99.90;;;;;;5021775;28;20493;-83
2023/11/15 01:07:16;;;;;;;26.50;6.75;;;10.50;99.90;;;;;;5019326;28;20034;-83
2023/11/15 01:09:41;;;;;;;21.45;6.28;;;10.50;99.90;;;;;;5021784;28;20050;-83
2023/11/15 01:12:07;;;;;;;21.33;6.07;;;10.50;99.90;;;;;;5052965;28;20436;-83
2023/11/15 01:14:34;;;;;;;29.87;6.70;;;10.50;99.90;;;;;;5021458;28;20432;-83
2023/11/15 01:16:59;;;;;;;19.40;6.25;;;10.50;99.90;;;;;;5020649;28;20029;-82
2023/11/15 01:19:25;;;;;;;21.70;7.70;;;10.60;99.90;;;;;;5020180;28;20037;-83
2023/11/15 01:21:51;;;;;;;24.92;7.20;;;10.60;99.90;;;;;;5021262;28;20101;-83
2023/11/15 01:24:17;;;;;;;18.33;6.53;;;10.60;99.90;;;;;;5052311;28;20109;-82
2023/11/15 01:26:43;;;;;;;21.90;5.55;;;10.60;99.90;;;;;;5021489;28;20025;-82
2023/11/15 01:29:08;;;;;;;19.10;4.38;;;10.60;99.90;;;;;;5018965;28;20033;-82
2023/11/15 01:31:34;;;;;;;12.27;3.63;;;10.50;99.90;;;;;;5021507;28;20052;-83
2023/11/15 01:34:00;;;;;;;18.10;3.60;;;10.50;99.90;;;;;;5020619;28;20036;-82
2023/11/15 01:36:25;;;;;;;10.30;2.80;;;10.50;99.90;;;;;;5019730;28;20064;-83
2023/11/15 01:38:51;;;;;;;9.23;2.10;;;10.40;99.90;;;;;;5021473;28;20018;-82
2023/11/15 01:41:17;;;;;;;15.52;2.70;;;10.40;99.90;;;;;;5019113;28;20037;-84
2023/11/15 01:43:44;;;;;;;11.65;2.85;;;10.40;99.90;;;;;;5021421;28;20140;-83
2023/11/15 01:46:10;;;;;;;10.60;2.72;;;10.30;99.90;;;;;;5019072;28;20029;-83
2023/11/15 01:48:36;;;;;;;7.40;1.67;;;10.30;99.90;;;;;;5021267;28;20018;-83
2023/11/15 01:51:03;;;;;;;8.23;1.63;;;10.30;99.90;;;;;;5020057;28;20025;-82
2023/11/15 01:53:30;;;;;;;9.45;1.90;;;10.20;99.90;;;;;;5021585;28;20018;-83
2023/11/15 01:55:56;;;;;;;9.17;1.47;;;10.20;99.90;;;;;;5054232;28;20073;-83
2023/11/15 01:58:25;;;;;;;7.27;1.30;;;10.10;99.90;;;;;;5021039;28;20025;-84
2023/11/15 02:00:51;;;;;;;3.43;0.77;;;10.10;99.90;;;;;;5026381;28;20014;-84
2023/11/15 02:03:18;;;;;;;5.30;0.97;;;10.10;99.90;;;;;;5022932;28;20105;-84
2023/11/15 02:05:45;;;;;;;6.30;1.00;;;10.00;99.90;;;;;;5024950;28;20060;-83
2023/11/15 02:08:11;;;;;;;5.33;0.90;;;10.00;99.90;;;;;;5024865;28;20018;-84
2023/11/15 02:10:38;;;;;;;3.13;1.07;;;10.00;99.90;;;;;;5023839;28;20071;-84
2023/11/15 02:13:03;;;;;;;2.73;1.13;;;10.00;99.90;;;;;;5024851;28;20022;-83
2023/11/15 02:15:29;;;;;;;9.73;1.30;;;10.00;99.90;;;;;;5022681;28;20025;-84
2023/11/15 02:17:55;;;;;;;7.93;1.53;;;10.00;99.90;;;;;;5024670;28;20475;-84
2023/11/15 02:20:22;;;;;;;5.63;1.07;;;10.00;99.90;;;;;;5022428;28;20058;-84
2023/11/15 02:22:50;;;;;;;5.37;0.87;;;10.00;99.90;;;;;;5024517;28;20034;-84
2023/11/15 02:25:17;;;;;;;5.83;1.43;;;10.00;99.90;;;;;;5023612;28;20022;-83
2023/11/15 02:27:43;;;;;;;6.43;1.67;;;10.00;99.90;;;;;;5056468;28;20032;-83
2023/11/15 02:30:10;;;;;;;7.13;1.40;;;10.00;99.90;;;;;;5024688;28;20029;-83
2023/11/15 02:32:37;;;;;;;7.40;1.73;;;10.00;99.90;;;;;;5022320;28;20026;-83
2023/11/15 02:35:03;;;;;;;8.07;1.77;;;10.00;99.90;;;;;;5024238;28;20030;-84
2023/11/15 02:37:29;;;;;;;6.00;1.53;;;10.00;99.90;;;;;;5022175;28;20022;-84
2023/11/15 02:39:57;;;;;;;9.13;1.93;;;10.10;99.90;;;;;;5024046;28;20061;-84
2023/11/15 02:42:24;;;;;;;8.90;1.83;;;10.10;99.90;;;;;;5022927;28;20448;-84
2023/11/15 02:44:50;;;;;;;6.90;1.93;;;10.10;99.90;;;;;;5023378;28;20037;-84
2023/11/15 02:47:15;;;;;;;9.63;2.50;;;10.10;99.90;;;;;;5024284;28;20022;-82
2023/11/15 02:49:41;;;;;;;8.90;2.50;;;10.10;99.90;;;;;;5021811;28;20026;-82
2023/11/15 02:52:06;;;;;;;13.13;3.53;;;10.20;99.90;;;;;;5023890;28;20022;-82
2023/11/15 02:54:32;;;;;;;10.75;2.97;;;10.20;99.90;;;;;;5021840;28;20018;-81
2023/11/15 02:56:58;;;;;;;17.85;3.97;;;10.20;99.90;;;;;;5024108;28;20040;-82
2023/11/15 02:59:23;;;;;;;15.90;5.00;;;10.20;99.90;;;;;;5022613;28;20045;-82
2023/11/15 03:01:51;;;;;;;20.77;4.90;;;10.20;99.90;;;;;;5023075;28;20025;-83
2023/11/15 03:04:17;;;;;;;22.83;5.83;;;10.20;99.90;;;;;;5024744;28;20026;-82
2023/11/15 03:06:43;;;;;;;24.98;5.30;;;10.30;99.90;;;;;;5021868;28;20037;-82
2023/11/15 03:09:09;;;;;;;24.33;5.27;;;10.30;99.90;;;;;;5022831;28;20038;-83
2023/11/15 03:11:35;;;;;;;26.33;5.73;;;10.30;99.90;;;;;;5021708;28;20048;-83
2023/11/15 03:14:02;;;;;;;25.10;5.75;;;10.30;99.90;;;;;;5023569;28;20029;-82
2023/11/15 03:16:28;;;;;;;31.15;5.00;;;10.30;99.90;;;;;;5055102;28;20018;-82
2023/11/15 03:18:54;;;;;;;25.27;4.47;;;10.30;99.90;;;;;;5022998;28;20110;-83
2023/11/15 03:21:20;;;;;;;23.58;4.22;;;10.40;99.90;;;;;;5023302;28;20030;-82
2023/11/15 03:23:45;;;;;;;18.83;4.13;;;10.40;99.90;;;;;;5022628;28;20049;-82
2023/11/15 03:26:12;;;;;;;21.90;5.35;;;10.40;99.90;;;;;;5023748;28;20475;-82
2023/11/15 03:28:38;;;;;;;20.63;4.65;;;10.40;99.90;;;;;;5020991;28;20021;-82
2023/11/15 03:31:03;;;;;;;23.47;5.00;;;10.40;99.90;;;;;;5023150;28;20068;-82
2023/11/15 03:33:29;;;;;;;23.53;4.73;;;10.40;99.90;;;;;;5021251;28;20497;-82
2023/11/15 03:35:55;;;;;;;19.47;4.37;;;10.40;99.90;;;;;;5023113;28;20086;-82
2023/11/15 03:38:21;;;;;;;24.30;4.22;;;10.50;99.90;;;;;;5022481;28;20034;-82
2023/11/15 03:40:47;;;;;;;26.27;4.82;;;10.50;99.90;;;;;;5021766;28;20049;-82
2023/11/15 03:43:13;;;;;;;24.48;5.55;;;10.50;99.90;;;;;;5023113;28;20470;-82
2023/11/15 03:45:39;;;;;;;25.52;4.97;;;10.50;99.90;;;;;;5021030;28;20018;-82
2023/11/15 03:48:05;;;;;;;23.05;4.85;;;10.50;99.90;;;;;;5023163;28;20081;-82
2023/11/15 03:50:30;;;;;;;23.67;5.75;;;10.50;99.90;;;;;;5020953;28;20466;-82
2023/11/15 03:52:56;;;;;;;25.92;5.03;;;10.50;99.90;;;;;;5022660;28;20028;-82
2023/11/15 03:55:22;;;;;;;27.40;5.27;;;10.50;99.90;;;;;;5022436;28;20429;-83
2023/11/15 03:57:47;;;;;;;24.02;4.53;;;10.60;99.90;;;;;;5021947;28;20034;-84
2023/11/15 04:00:16;;;;;;;25.95;4.15;;;10.60;99.90;;;;;;5023980;28;20034;-83
2023/11/15 04:02:42;;;;;;;25.97;5.07;;;10.50;99.90;;;;;;5021517;28;20030;-84
2023/11/15 04:05:09;;;;;;;21.08;4.40;;;10.50;99.90;;;;;;5023382;28;20049;-83
2023/11/15 04:07:36;;;;;;;17.77;3.95;;;10.60;99.90;;;;;;5020797;28;20036;-83
2023/11/15 04:10:02;;;;;;;22.33;4.35;;;10.60;99.90;;;;;;5022721;28;20033;-83
2023/11/15 04:12:27;;;;;;;19.13;4.50;;;10.60;99.90;;;;;;5021522;28;20018;-83
2023/11/15 04:14:53;;;;;;;21.55;4.53;;;10.60;99.90;;;;;;5021228;28;20026;-83
2023/11/15 04:17:19;;;;;;;15.25;4.13;;;10.60;99.90;;;;;;5022616;28;20088;-83
2023/11/15 04:19:45;;;;;;;20.25;4.63;;;10.60;99.90;;;;;;5020298;28;20057;-82
2023/11/15 04:22:10;;;;;;;20.55;3.80;;;10.60;99.90;;;;;;5021893;28;20552;-83
2023/11/15 04:24:39;;;;;;;19.63;3.20;;;10.50;99.90;;;;;;5020058;28;20097;-83
2023/11/15 04:27:06;;;;;;;22.05;4.03;;;10.60;99.90;;;;;;5022493;28;20022;-83
2023/11/15 04:29:32;;;;;;;28.67;4.55;;;10.50;99.90;;;;;;5020613;28;20470;-82
2023/11/15 04:31:58;;;;;;;24.55;3.63;;;10.60;99.90;;;;;;5021004;28;20041;-82
2023/11/15 04:34:23;;;;;;;12.30;2.95;;;10.60;99.90;;;;;;5022260;28;20105;-83
2023/11/15 04:36:49;;;;;;;19.15;3.70;;;10.60;99.90;;;;;;5019963;28;20025;-83
2023/11/15 04:39:15;;;;;;;20.08;3.35;;;10.60;99.90;;;;;;5022099;28;20085;-83
2023/11/15 04:41:40;;;;;;;19.45;3.50;;;10.60;99.90;;;;;;5020093;28;20061;-83
2023/11/15 04:44:06;;;;;;;23.50;3.92;;;10.60;99.90;;;;;;5022096;28;20044;-83
2023/11/15 04:46:34;;;;;;;18.05;3.38;;;10.60;99.90;;;;;;5020507;28;20092;-82
2023/11/15 04:49:00;;;;;;;25.60;3.58;;;10.60;99.90;;;;;;5021152;28;20030;-82
2023/11/15 04:51:26;;;;;;;18.05;2.85;;;10.60;99.90;;;;;;5021776;28;20028;-82
2023/11/15 04:53:52;;;;;;;15.70;3.08;;;10.60;99.90;;;;;;5019861;28;20030;-82
2023/11/15 04:56:17;;;;;;;24.58;3.88;;;10.60;99.90;;;;;;5021992;28;20045;-82
2023/11/15 04:58:43;;;;;;;20.38;3.40;;;10.60;99.90;;;;;;5019474;28;20061;-83
2023/11/15 05:01:09;;;;;;;17.50;3.88;;;10.60;99.90;;;;;;5021844;28;20030;-82
2023/11/15 05:03:34;;;;;;;27.02;3.80;;;10.60;99.90;;;;;;5020243;28;20022;-83
2023/11/15 05:06:00;;;;;;;20.45;3.97;;;10.60;99.90;;;;;;5021131;28;20049;-85
2023/11/15 05:08:26;;;;;;;24.77;3.22;;;10.60;99.90;;;;;;5021770;28;20447;-84
2023/11/15 05:10:52;;;;;;;19.85;3.95;;;10.60;99.90;;;;;;5020026;28;20045;-82
2023/11/15 05:13:19;;;;;;;19.08;3.33;;;10.70;99.90;;;;;;5022891;28;20109;-83
2023/11/15 05:15:45;;;;;;;22.80;3.05;;;10.60;99.90;;;;;;5019293;28;20052;-83
2023/11/15 05:18:11;;;;;;;24.53;3.60;;;10.60;99.90;;;;;;5022102;28;20458;-83
2023/11/15 05:20:36;;;;;;;21.43;3.40;;;10.70;99.90;;;;;;5019980;28;20104;-83
2023/11/15 05:23:03;;;;;;;16.02;3.25;;;10.70;99.90;;;;;;5021075;28;20045;-83
2023/11/15 05:25:29;;;;;;;14.70;3.00;;;10.70;99.90;;;;;;5021112;28;20094;-83
2023/11/15 05:27:55;;;;;;;23.10;3.75;;;10.70;99.90;;;;;;5052535;28;20022;-83
2023/11/15 05:30:21;;;;;;;20.33;3.43;;;10.70;99.90;;;;;;5021490;28;20478;-83
2023/11/15 05:32:47;;;;;;;22.10;3.17;;;10.70;99.90;;;;;;5022567;28;20026;-83
2023/11/15 05:35:13;;;;;;;19.90;3.47;;;10.70;99.90;;;;;;5028141;28;20045;-83
2023/11/15 05:37:39;;;;;;;26.65;4.07;;;10.70;99.90;;;;;;5025969;28;20024;-83
2023/11/15 05:40:06;;;;;;;22.52;2.97;;;10.70;99.90;;;;;;5027865;28;20029;-82
2023/11/15 05:42:32;;;;;;;27.15;4.13;;;10.70;99.90;;;;;;5026794;28;20088;-82
2023/11/15 05:44:59;;;;;;;18.92;3.28;;;10.70;99.90;;;;;;5026466;28;20022;-82
2023/11/15 05:47:26;;;;;;;15.30;3.53;;;10.70;99.90;;;;;;5028013;28;20414;-82
2023/11/15 05:49:52;;;;;;;27.95;4.22;;;10.70;99.90;;;;;;5025652;28;20468;-82
2023/11/15 05:52:18;;;;;;;24.02;4.60;;;10.70;99.90;;;;;;5027951;28;20030;-82
2023/11/15 05:54:44;;;;;;;18.75;3.60;;;10.70;99.90;;;;;;5025466;28;20022;-82
2023/11/15 05:57:11;;;;;;;25.60;4.97;;;10.70;99.90;;;;;;5027393;28;20017;-82
2023/11/15 05:59:37;;;;;;;28.38;4.38;;;10.70;99.90;;;;;;5060205;28;20026;-82
2023/11/15 06:02:03;;;;;;;18.98;3.42;;;10.70;99.90;;;;;;5022340;28;20509;-82
2023/11/15 06:04:29;;;;;;;28.98;4.13;;;10.70;99.90;;;;;;5007837;28;20034;-82
2023/11/15 06:06:54;;;;;;;19.98;3.95;;;10.70;99.90;;;;;;5005209;28;20019;-82
2023/11/15 06:09:21;;;;;;;29.90;3.83;;;10.70;99.90;;;;;;5009387;28;20030;-83
2023/11/15 06:11:47;;;;;;;24.92;4.07;;;10.70;99.90;;;;;;5022264;28;20373;-83
2023/11/15 06:14:15;;;;;;;19.30;3.55;;;10.70;99.90;;;;;;5008489;28;20018;-83
2023/11/15 06:16:41;;;;;;;32.83;4.82;;;10.70;99.90;;;;;;5007031;28;20023;-83
2023/11/15 06:19:07;;;;;;;20.83;3.70;;;10.70;99.90;;;;;;5022974;28;20022;-83
2023/11/15 06:21:40;;;;;;;21.67;4.45;;;10.70;99.90;;;;;;5027848;28;20033;-82
2023/11/15 06:24:06;;;;;;;22.38;4.53;;;10.70;99.90;;;;;;5025007;28;20049;-83
2023/11/15 06:26:39;;;;;;;19.00;3.83;;;10.70;99.90;;;;;;5028865;28;20064;-82
2023/11/15 06:29:05;;;;;;;17.83;3.58;;;10.70;99.90;;;;;;5025153;28;20033;-82
2023/11/15 06:31:32;;;;;;;18.20;2.63;;;10.70;99.90;;;;;;5027397;28;20120;-81
2023/11/15 06:33:58;;;;;;;23.73;3.83;;;10.70;99.90;;;;;;5026842;28;20026;-81
2023/11/15 06:36:24;;;;;;;22.90;4.10;;;10.70;99.90;;;;;;5027438;28;20072;-82
2023/11/15 06:38:50;;;;;;;27.95;5.00;;;10.70;99.90;;;;;;5028627;28;20037;-82
2023/11/15 06:41:15;;;;;;;23.63;4.25;;;10.60;99.90;;;;;;5026146;28;20018;-82
2023/11/15 06:43:41;;;;;;;23.45;4.38;;;10.70;99.90;;;;;;5027683;28;20077;-83
2023/11/15 06:46:08;;;;;;;27.23;4.55;;;10.70;99.90;;;;;;5022114;28;20382;-83
2023/11/15 06:48:33;;;;;;;31.60;4.32;;;10.60;99.90;;;;;;5024145;28;20077;-84
2023/11/15 06:50:59;;;;;;;24.63;4.35;;;10.60;99.90;;;;;;5023361;28;20018;-82
2023/11/15 06:53:25;;;;;;;18.40;3.17;;;10.60;99.90;;;;;;5023076;28;20534;-83
2023/11/15 06:55:54;;;;;;;24.05;3.88;;;10.60;99.90;;;;;;5025672;28;20351;-82
2023/11/15 06:58:21;;;;;;;23.20;4.03;;;10.60;99.90;;;;;;5021887;28;20575;-82
2023/11/15 07:00:47;;;;;;;25.27;3.75;;;10.60;99.90;;;;;;5024249;28;20026;-82
2023/11/15 07:03:13;;;;;;;25.40;4.30;;;10.60;99.90;;;;;;5023216;28;20056;-82
2023/11/15 07:05:41;;;;;;;24.40;4.47;;;10.70;99.90;;;;;;5025114;28;20033;-84
2023/11/15 07:08:07;;;;;;;17.70;3.45;;;10.60;99.90;;;;;;5023120;28;20497;-83
2023/11/15 07:10:33;;;;;;;17.58;3.53;;;10.60;99.90;;;;;;5022471;28;20018;-80
2023/11/15 07:13:00;;;;;;;26.58;4.55;;;10.70;99.90;;;;;;5023403;28;20053;-82
2023/11/15 07:15:26;;;;;;;29.85;4.13;;;10.70;99.90;;;;;;5021444;28;20018;-81
2023/11/15 07:17:54;;;;;;;25.50;3.88;;;10.70;99.90;;;;;;5023401;28;20018;-80
2023/11/15 07:20:21;;;;;;;19.42;3.67;;;10.70;99.90;;;;;;5020813;28;20061;-81
2023/11/15 07:22:47;;;;;;;24.83;3.47;;;10.70;99.90;;;;;;5024921;28;20033;-81
2023/11/15 07:25:15;;;;;;;15.27;3.72;;;10.70;99.90;;;;;;5031916;22;20045;-81
2023/11/15 07:27:41;;;;;;;19.77;3.97;;;10.70;99.90;;;;;;5022652;28;20089;-82
2023/11/15 07:30:07;;;;;;;10.27;2.88;;;10.70;99.90;;;;;;5025827;28;20022;-81
2023/11/15 07:32:34;;;;;;;22.73;3.97;;;10.60;99.90;;;;;;5017759;28;20026;-80
2023/11/15 07:34:59;;;;;;;16.30;3.25;;;10.60;99.90;;;;;;5013702;28;20029;-81
2023/11/15 07:37:25;;;;;;;13.23;2.67;;;10.60;99.90;;;;;;5015950;28;20401;-79
2023/11/15 07:39:51;;;;;;;12.50;2.03;;;10.50;99.90;;;;;;5009883;28;20026;-79
2023/11/15 07:42:17;;;;;;;10.20;2.92;;;10.50;99.90;;;;;;5030681;28;20104;-79
2023/11/15 07:44:43;;;;;;;23.27;4.93;;;10.40;99.90;;;;;;5014360;28;20077;-80
2023/11/15 07:47:10;;;;;;;17.73;6.03;;;10.40;99.90;;;;;;5013541;28;20030;-79
2023/11/15 07:49:36;;;;;;;20.70;6.47;;;10.40;99.90;;;;;;5003842;28;20121;-79
2023/11/15 07:52:02;;;;;;;22.83;4.82;;;10.40;99.90;;;;;;5011874;28;20045;-80
2023/11/15 07:54:28;;;;;;;19.47;4.40;;;10.40;99.90;;;;;;5011325;28;20030;-80
2023/11/15 07:56:53;;;;;;;22.17;4.83;;;10.50;99.90;;;;;;5010241;28;20024;-80
2023/11/15 07:59:21;;;;;;;24.27;3.88;;;10.50;99.90;;;;;;5013756;28;20554;-80
2023/11/15 08:01:48;;;;;;;17.40;3.63;;;10.50;99.90;;;;;;5010829;28;20133;-80
2023/11/15 08:04:14;;;;;;;22.10;4.40;;;10.50;99.90;;;;;;5020739;28;20072;-81
2023/11/15 08:06:40;;;;;;;26.67;5.15;;;10.60;99.90;;;;;;5024330;28;20025;-79
2023/11/15 08:09:07;;;;;;;20.15;4.80;;;10.60;99.90;;;;;;5022958;28;20058;-80
2023/11/15 08:11:34;;;;;;;23.65;4.70;;;10.70;99.90;;;;;;5023712;28;20026;-79
2023/11/15 08:14:02;;;;;;;20.83;4.35;;;10.70;99.90;;;;;;5023423;28;20025;-80
2023/11/15 08:16:30;;;;;;;27.17;4.70;;;10.70;99.90;;;;;;5023806;28;20635;-80
2023/11/15 08:18:56;;;;;;;18.52;5.03;;;10.70;99.90;;;;;;5021629;28;20018;-80
2023/11/15 08:21:22;;;;;;;24.83;4.57;;;10.70;99.90;;;;;;5023511;28;20029;-80
2023/11/15 08:23:47;;;;;;;17.83;4.25;;;10.70;99.90;;;;;;5022439;28;20033;-80
2023/11/15 08:26:21;;;;;;;25.13;4.75;;;10.80;99.90;;;;;;5022616;28;20045;-79
2023/11/15 08:28:47;;;;;;;21.55;4.53;;;10.80;99.90;;;;;;5024522;28;20020;-81
2023/11/15 08:31:16;;;;;;;34.55;6.13;;;10.80;99.90;;;;;;5021556;28;20061;-84
2023/11/15 08:33:44;;;;;;;25.95;4.70;;;10.80;99.90;;;;;;5023446;28;20041;-80
2023/11/15 08:36:12;;;;;;;23.48;5.68;;;10.90;99.90;;;;;;5020989;28;20093;-80
2023/11/15 08:38:37;;;;;;;25.33;4.75;;;10.90;99.90;;;;;;5021398;28;20037;-80
2023/11/15 08:41:03;;;;;;;33.38;6.43;;;10.90;99.90;;;;;;5017064;28;20041;-80
2023/11/15 08:43:29;;;;;;;27.60;5.30;;;10.90;99.90;;;;;;5013252;28;20041;-80
2023/11/15 08:45:57;;;;;;;25.15;4.55;;;10.90;99.90;;;;;;5014992;28;20170;-79
2023/11/15 08:48:23;;;;;;;23.23;4.63;;;10.90;99.90;;;;;;5011542;28;20023;-80
2023/11/15 08:50:49;;;;;;;21.83;4.38;;;11.00;99.90;;;;;;5011889;28;20041;-80
2023/11/15 08:53:18;;;;;;;20.65;5.20;;;10.90;99.90;;;;;;5010174;28;20014;-80
2023/11/15 08:55:44;;;;;;;18.20;3.97;;;10.90;99.90;;;;;;5012192;28;20424;-80
2023/11/15 08:58:14;;;;;;;19.20;3.97;;;11.00;99.90;;;;;;5010982;28;20046;-80
2023/11/15 09:00:40;;;;;;;25.75;3.70;;;11.00;99.90;;;;;;5038301;28;20025;-80
2023/11/15 09:03:06;;;;;;;20.13;3.95;;;11.00;99.90;;;;;;5039259;28;20065;-80
2023/11/15 09:05:33;;;;;;;19.40;3.15;;;11.10;99.90;;;;;;5021365;28;20025;-88
2023/11/15 09:08:00;;;;;;;19.90;3.40;;;11.10;99.90;;;;;;5023331;28;20053;-80
2023/11/15 09:10:27;;;;;;;15.38;3.38;;;11.10;99.90;;;;;;5031386;28;20061;-80
2023/11/15 09:12:55;;;;;;;18.67;3.00;;;11.10;99.90;;;;;;5029313;28;20020;-79
2023/11/15 09:15:22;;;;;;;20.67;3.10;;;11.10;99.90;;;;;;5012164;28;20021;-80
2023/11/15 09:17:50;;;;;;;18.10;3.25;;;11.20;99.90;;;;;;5023889;28;20113;-80
2023/11/15 09:20:21;;;;;;;16.38;2.92;;;11.20;99.90;;;;;;5003025;28;20053;-79
2023/11/15 09:22:53;;;;;;;18.45;2.75;;;11.30;99.90;;;;;;5001190;28;20114;-80
2023/11/15 09:25:23;;;;;;;17.92;2.83;;;11.50;99.90;;;;;;5002455;28;20069;-80
2023/11/15 09:27:51;;;;;;;17.10;3.25;;;11.60;99.90;;;;;;4999859;28;20026;-80
2023/11/15 09:30:18;;;;;;;16.50;3.65;;;11.70;99.90;;;;;;5001815;28;20090;-80
2023/11/15 09:32:50;;;;;;;24.08;3.80;;;11.70;99.90;;;;;;5001478;28;20026;-80
2023/11/15 09:35:17;;;;;;;17.02;3.08;;;11.70;99.90;;;;;;4999800;28;20138;-80
2023/11/15 09:37:44;;;;;;;20.35;3.10;;;11.70;99.90;;;;;;5001924;28;20062;-80
2023/11/15 09:40:13;;;;;;;22.45;3.13;;;11.80;99.90;;;;;;4999694;28;20030;-80
2023/11/15 09:42:46;;;;;;;14.30;3.75;;;11.70;99.90;;;;;;5001997;28;20030;-80
2023/11/15 09:45:19;;;;;;;19.08;3.75;;;11.80;99.90;;;;;;5002338;28;20035;-80
2023/11/15 09:47:52;;;;;;;17.00;3.53;;;11.80;99.90;;;;;;5000536;28;20029;-80
2023/11/15 09:50:23;;;;;;;20.05;3.92;;;11.90;99.90;;;;;;5001903;28;20029;-80
2023/11/15 09:52:51;;;;;;;13.02;2.80;;;11.80;99.90;;;;;;4999519;28;20038;-80
2023/11/15 09:55:18;;;;;;;16.55;2.60;;;11.70;99.90;;;;;;5005313;28;20018;-80
2023/11/15 09:57:44;;;;;;;17.58;3.30;;;11.70;99.90;;;;;;5016084;28;20069;-80
2023/11/15 10:00:11;;;;;;;12.35;2.65;;;11.60;99.90;;;;;;5021384;28;20037;-80
2023/11/15 10:02:37;;;;;;;20.30;2.63;;;11.60;99.90;;;;;;5020637;28;20106;-80
2023/11/15 10:05:26;;;;;;;18.70;2.90;;;11.60;99.90;;;;;;5010317;28;20022;-80
2023/11/15 10:08:08;;;;;;;20.95;3.38;;;11.60;99.90;;;;;;5011243;28;20014;-80
2023/11/15 10:10:34;;;;;;;16.00;2.05;;;11.60;99.90;;;;;;5025161;28;20031;-80
2023/11/15 10:13:08;;;;;;;13.95;2.58;;;11.70;99.90;;;;;;5027809;28;20030;-80
2023/11/15 10:15:36;;;;;;;11.82;1.55;;;11.90;99.90;;;;;;5011029;28;20101;-79
2023/11/15 10:18:11;;;;;;;15.05;1.85;;;12.40;99.90;;;;;;5004098;28;20038;-80
2023/11/15 10:20:38;;;;;;;12.70;2.13;;;13.00;99.90;;;;;;5005129;28;20084;-79
2023/11/15 10:23:04;;;;;;;10.85;1.80;;;13.40;99.90;;;;;;4999050;28;20530;-80
2023/11/15 10:25:31;;;;;;;12.63;1.50;;;13.80;99.90;;;;;;5015871;28;20041;-80
2023/11/15 10:28:07;;;;;;;13.57;1.83;;;14.10;99.90;;;;;;5015732;28;20021;-80
2023/11/15 10:30:33;;;;;;;9.75;1.42;;;14.30;99.90;;;;;;5023009;28;20528;-80
2023/11/15 10:33:17;;;;;;;12.18;1.50;;;14.50;99.90;;;;;;5024307;28;20021;-80
2023/11/15 10:35:43;;;;;;;10.05;1.83;;;14.70;99.90;;;;;;5022308;28;20473;-80
2023/11/15 10:38:18;;;;;;;9.70;1.65;;;14.70;99.90;;;;;;5024683;28;20024;-80
2023/11/15 10:40:46;;;;;;;11.15;2.22;;;14.60;99.90;;;;;;5022216;28;20077;-79
2023/11/15 10:43:15;;;;;;;16.25;2.15;;;14.60;99.90;;;;;;5023862;28;20034;-80
2023/11/15 10:45:43;;;;;;;6.13;1.10;;;14.90;99.90;;;;;;5024448;28;20065;-80
2023/11/15 10:48:18;;;;;;;11.50;1.50;;;15.30;99.90;;;;;;5021961;28;20025;-80
2023/11/15 10:50:45;;;;;;;13.98;2.03;;;15.70;99.90;;;;;;5025750;28;20029;-80
2023/11/15 10:53:12;;;;;;;12.85;2.33;;;15.80;99.90;;;;;;5021739;28;20105;-81
2023/11/15 10:55:39;;;;;;;12.85;2.20;;;15.70;99.90;;;;;;5024500;28;20028;-81
2023/11/15 10:58:08;;;;;;;8.73;1.45;;;15.50;99.90;;;;;;5022486;28;20022;-80
2023/11/15 11:00:35;;;;;;;15.73;2.42;;;15.40;99.90;;;;;;5022806;28;20025;-80
2023/11/15 11:03:05;;;;;;;19.70;1.80;;;15.30;99.90;;;;;;5023980;28;20026;-80
2023/11/15 11:06:08;;;;;;;11.20;1.58;;;15.10;99.90;;;;;;5021702;28;20060;-80
2023/11/15 11:08:46;;;;;;;12.35;1.25;;;15.00;99.90;;;;;;5008559;28;20134;-81
2023/11/15 11:11:20;;;;;;;11.32;1.85;;;14.90;99.90;;;;;;5003336;28;20023;-79
2023/11/15 11:14:16;;;;;;;9.82;1.23;;;14.70;99.90;;;;;;5001871;28;20030;-80
2023/11/15 11:16:44;;;;;;;14.18;1.70;;;14.40;99.50;;;;;;5005214;28;20018;-80
2023/11/15 11:19:25;;;;;;;13.85;1.63;;;14.20;99.30;;;;;;5002011;28;20033;-80
2023/11/15 11:24:32;;;;;;;14.50;2.08;;;13.70;99.20;;;;;;5012883;28;20370;-79
2023/11/15 11:27:16;;;;;;;11.15;1.67;;;13.60;99.90;;;;;;5011607;28;20022;-79
2023/11/15 11:30:02;;;;;;;8.93;1.85;;;13.50;99.90;;;;;;5029363;28;20090;-79
2023/11/15 11:32:32;;;;;;;8.30;1.77;;;13.70;99.90;;;;;;5022305;28;20030;-79
2023/11/15 11:35:00;;;;;;;12.45;2.03;;;13.80;99.90;;;;;;5010887;28;20532;-80
2023/11/15 11:37:44;;;;;;;8.35;1.33;;;14.10;99.90;;;;;;5030460;28;20033;-79
2023/11/15 11:40:14;;;;;;;10.25;1.63;;;14.30;99.90;;;;;;5001644;28;20038;-79
2023/11/15 11:42:43;;;;;;;9.13;1.40;;;14.50;99.90;;;;;;5003528;28;20038;-79
2023/11/15 11:45:10;;;;;;;9.73;1.35;;;14.70;99.90;;;;;;5003564;28;20053;-79
2023/11/15 11:47:46;;;;;;;14.38;1.95;;;14.90;99.90;;;;;;5002867;28;20029;-80
2023/11/15 11:50:23;;;;;;;7.20;1.20;;;14.90;99.70;;;;;;5014241;28;20025;-79
2023/11/15 11:52:56;;;;;;;12.13;1.70;;;15.30;99.90;;;;;;5020784;28;20021;-79
2023/11/15 11:55:23;;;;;;;7.50;1.00;;;15.60;98.60;;;;;;5023056;28;20033;-80
2023/11/15 11:57:49;;;;;;;9.90;1.40;;;15.60;96.50;;;;;;5021145;28;20029;-79
2023/11/15 12:00:16;;;;;;;9.52;1.42;;;15.40;96.40;;;;;;5022645;28;20041;-79
2023/11/15 12:02:45;;;;;;;11.43;1.52;;;15.20;95.50;;;;;;5022041;28;20136;-79
2023/11/15 12:05:12;;;;;;;15.48;2.25;;;14.80;95.50;;;;;;5021283;28;20022;-79
2023/11/15 12:07:45;;;;;;;9.25;1.55;;;14.50;95.50;;;;;;5022878;28;20014;-80
2023/11/15 12:10:13;;;;;;;10.68;1.20;;;14.20;95.80;;;;;;5020237;28;20021;-79
2023/11/15 12:12:39;;;;;;;15.60;1.60;;;13.90;96.60;;;;;;5020761;28;20050;-79
2023/11/15 12:15:13;;;;;;;9.70;1.90;;;13.60;97.40;;;;;;5011361;28;20022;-79
2023/11/15 12:17:40;;;;;;;13.23;1.58;;;13.40;98.20;;;;;;5026589;28;20406;-79
2023/11/15 12:20:13;;;;;;;9.07;1.25;;;13.20;98.80;;;;;;5003115;28;20031;-79
2023/11/15 12:22:42;;;;;;;10.38;1.50;;;13.00;99.50;;;;;;5000778;28;20030;-79
2023/11/15 12:25:09;;;;;;;11.15;1.50;;;12.90;99.60;;;;;;5005810;28;20133;-80
2023/11/15 12:27:38;;;;;;;9.57;1.55;;;12.80;99.90;;;;;;5019906;28;20021;-80
2023/11/15 12:30:07;;;;;;;12.18;1.40;;;12.60;99.90;;;;;;5022495;28;20022;-80
2023/11/15 12:32:36;;;;;;;10.30;1.55;;;12.60;99.90;;;;;;5021351;28;20032;-80
2023/11/15 12:35:06;;;;;;;10.10;1.13;;;12.70;99.90;;;;;;5020165;28;20022;-79
2023/11/15 12:37:38;;;;;;;10.43;1.10;;;12.60;99.90;;;;;;5022262;28;20022;-80
2023/11/15 12:40:22;;;;;;;12.45;1.20;;;12.60;99.90;;;;;;5019462;28;20428;-79
2023/11/15 12:42:50;;;;;;;9.95;0.98;;;12.60;99.90;;;;;;5022750;28;20040;-80